Sivas, Turkey
Current Conditions -  °F | °C
As of 11:50 PM on Friday 28 Nov 2014 (Local Time) from LTAR Reporting Station
Scattered Clouds Scattered Clouds  
Wind Chill: 28°   Ceiling: Unl
Heat Index: 28°   Visibility: 6mi
Dew Point: 21°   Wind: 3mph
Humidity: 74%   Direction: 250°WSW
Pressure: 30.24"   Gusts: NA
Location:  39.75°N, 37.02°E
Report Text: LTAR 282050Z 25003KT 9999 SCT040 M02/M06 Q1024
Loading
Personal Weather Stations






























Interactive Weather Map New forecast layout! Learn more

10-Day Weather Forecast

Advertisements
Track Severe Weather on mobile